Saint Stephens, Nebraska
Current Conditions -  °F | °C
As of 9:53 PM on Thursday 20 Nov 2014 (Local Time) from KHSI Reporting Station
Clear Clear  
Wind Chill: 14°   Ceiling: Unl
Heat Index: 24°   Visibility: 10mi
Dew Point: 18°   Wind: 10mph
Humidity: 77%   Direction: 130°SE
Pressure: 30.14"   Gusts: NA
Location:  40.2635°N, 98.2176°W
Report Text: KHSI 210353Z AUTO 13009KT 10SM CLR M04/M08 A3014 RMK AO2 SLP229 T10441078
Loading
Personal Weather Stations






























Interactive Weather Map New forecast layout! Learn more

10-Day Weather Forecast

Advertisements
Track Severe Weather on mobile